sensor_id;sensor_type;location;lat;lon;timestamp;P1;durP1;ratioP1;P2;durP2;ratioP2
9729;SDS011;4904;49.152;11.004;2024-01-16T00:00:49;5.53;;;3.20;;
9729;SDS011;4904;49.152;11.004;2024-01-16T00:03:16;5.73;;;3.90;;
9729;SDS011;4904;49.152;11.004;2024-01-16T00:05:44;6.37;;;3.47;;
9729;SDS011;4904;49.152;11.004;2024-01-16T00:08:11;7.67;;;3.37;;
9729;SDS011;4904;49.152;11.004;2024-01-16T00:10:38;4.47;;;3.00;;
9729;SDS011;4904;49.152;11.004;2024-01-16T00:13:05;4.07;;;3.40;;
9729;SDS011;4904;49.152;11.004;2024-01-16T00:15:32;5.87;;;3.70;;
9729;SDS011;4904;49.152;11.004;2024-01-16T00:17:58;6.17;;;2.90;;
9729;SDS011;4904;49.152;11.004;2024-01-16T00:20:25;4.73;;;3.93;;
9729;SDS011;4904;49.152;11.004;2024-01-16T00:22:54;3.23;;;2.93;;
9729;SDS011;4904;49.152;11.004;2024-01-16T00:25:21;6.03;;;3.73;;
9729;SDS011;4904;49.152;11.004;2024-01-16T00:27:48;5.30;;;3.40;;
9729;SDS011;4904;49.152;11.004;2024-01-16T00:30:15;4.83;;;3.50;;
9729;SDS011;4904;49.152;11.004;2024-01-16T00:32:42;7.27;;;3.90;;
9729;SDS011;4904;49.152;11.004;2024-01-16T00:35:09;6.57;;;3.30;;
9729;SDS011;4904;49.152;11.004;2024-01-16T00:37:36;5.10;;;2.67;;
9729;SDS011;4904;49.152;11.004;2024-01-16T00:40:05;7.30;;;3.60;;
9729;SDS011;4904;49.152;11.004;2024-01-16T00:42:34;4.67;;;2.97;;
9729;SDS011;4904;49.152;11.004;2024-01-16T00:45:01;2.50;;;1.70;;
9729;SDS011;4904;49.152;11.004;2024-01-16T00:47:28;3.47;;;2.90;;
9729;SDS011;4904;49.152;11.004;2024-01-16T00:49:55;3.20;;;2.67;;
9729;SDS011;4904;49.152;11.004;2024-01-16T00:52:22;5.17;;;3.30;;
9729;SDS011;4904;49.152;11.004;2024-01-16T00:54:49;2.13;;;2.00;;
9729;SDS011;4904;49.152;11.004;2024-01-16T00:57:17;5.03;;;3.10;;
9729;SDS011;4904;49.152;11.004;2024-01-16T00:59:45;3.67;;;2.40;;
9729;SDS011;4904;49.152;11.004;2024-01-16T01:02:12;4.03;;;3.40;;
9729;SDS011;4904;49.152;11.004;2024-01-16T01:04:39;8.20;;;2.70;;
9729;SDS011;4904;49.152;11.004;2024-01-16T01:07:06;8.03;;;4.07;;
9729;SDS011;4904;49.152;11.004;2024-01-16T01:09:34;4.70;;;3.00;;
9729;SDS011;4904;49.152;11.004;2024-01-16T01:12:01;7.13;;;4.23;;
9729;SDS011;4904;49.152;11.004;2024-01-16T01:14:29;5.50;;;3.13;;
9729;SDS011;4904;49.152;11.004;2024-01-16T01:16:56;4.47;;;3.73;;
9729;SDS011;4904;49.152;11.004;2024-01-16T01:19:23;4.63;;;2.87;;
9729;SDS011;4904;49.152;11.004;2024-01-16T01:21:50;6.37;;;4.47;;
9729;SDS011;4904;49.152;11.004;2024-01-16T01:24:17;5.40;;;4.30;;
9729;SDS011;4904;49.152;11.004;2024-01-16T01:26:44;9.07;;;3.80;;
9729;SDS011;4904;49.152;11.004;2024-01-16T01:29:10;6.80;;;3.30;;
9729;SDS011;4904;49.152;11.004;2024-01-16T01:31:39;4.60;;;3.27;;
9729;SDS011;4904;49.152;11.004;2024-01-16T01:34:05;6.40;;;3.33;;
9729;SDS011;4904;49.152;11.004;2024-01-16T01:36:33;4.80;;;3.60;;
9729;SDS011;4904;49.152;11.004;2024-01-16T01:39:00;5.27;;;4.27;;
9729;SDS011;4904;49.152;11.004;2024-01-16T01:41:28;5.67;;;4.37;;
9729;SDS011;4904;49.152;11.004;2024-01-16T01:43:55;6.43;;;4.50;;
9729;SDS011;4904;49.152;11.004;2024-01-16T01:46:21;5.50;;;3.83;;
9729;SDS011;4904;49.152;11.004;2024-01-16T01:48:51;9.40;;;4.60;;
9729;SDS011;4904;49.152;11.004;2024-01-16T01:51:18;3.97;;;3.30;;
9729;SDS011;4904;49.152;11.004;2024-01-16T01:53:46;4.30;;;3.90;;
9729;SDS011;4904;49.152;11.004;2024-01-16T01:56:16;4.77;;;4.23;;
9729;SDS011;4904;49.152;11.004;2024-01-16T01:58:45;6.90;;;4.33;;
9729;SDS011;4904;49.152;11.004;2024-01-16T02:01:14;4.50;;;3.87;;
9729;SDS011;4904;49.152;11.004;2024-01-16T02:03:44;7.23;;;4.10;;
9729;SDS011;4904;49.152;11.004;2024-01-16T02:06:13;4.53;;;3.90;;
9729;SDS011;4904;49.152;11.004;2024-01-16T02:08:41;4.10;;;2.70;;
9729;SDS011;4904;49.152;11.004;2024-01-16T02:11:08;4.53;;;4.07;;
9729;SDS011;4904;49.152;11.004;2024-01-16T02:13:35;4.43;;;3.70;;
9729;SDS011;4904;49.152;11.004;2024-01-16T02:16:02;3.10;;;2.77;;
9729;SDS011;4904;49.152;11.004;2024-01-16T02:18:31;5.27;;;3.40;;
9729;SDS011;4904;49.152;11.004;2024-01-16T02:20:59;5.20;;;3.53;;
9729;SDS011;4904;49.152;11.004;2024-01-16T02:23:30;5.17;;;4.13;;
9729;SDS011;4904;49.152;11.004;2024-01-16T02:25:57;8.23;;;4.33;;
9729;SDS011;4904;49.152;11.004;2024-01-16T02:28:24;5.87;;;4.10;;
9729;SDS011;4904;49.152;11.004;2024-01-16T02:30:51;8.67;;;4.40;;
9729;SDS011;4904;49.152;11.004;2024-01-16T02:33:18;8.07;;;4.70;;
9729;SDS011;4904;49.152;11.004;2024-01-16T02:35:44;7.27;;;4.40;;
9729;SDS011;4904;49.152;11.004;2024-01-16T02:38:11;6.80;;;3.47;;
9729;SDS011;4904;49.152;11.004;2024-01-16T02:40:40;7.10;;;4.57;;
9729;SDS011;4904;49.152;11.004;2024-01-16T02:43:06;6.83;;;4.37;;
9729;SDS011;4904;49.152;11.004;2024-01-16T02:45:33;5.27;;;4.43;;
9729;SDS011;4904;49.152;11.004;2024-01-16T02:48:00;6.20;;;4.70;;
9729;SDS011;4904;49.152;11.004;2024-01-16T02:50:28;6.10;;;4.57;;
9729;SDS011;4904;49.152;11.004;2024-01-16T02:52:55;5.97;;;4.40;;
9729;SDS011;4904;49.152;11.004;2024-01-16T02:55:22;4.07;;;3.20;;
9729;SDS011;4904;49.152;11.004;2024-01-16T02:57:51;12.23;;;4.00;;
9729;SDS011;4904;49.152;11.004;2024-01-16T03:00:18;3.87;;;3.27;;
9729;SDS011;4904;49.152;11.004;2024-01-16T03:02:44;3.00;;;2.57;;
9729;SDS011;4904;49.152;11.004;2024-01-16T03:05:11;4.30;;;3.33;;
9729;SDS011;4904;49.152;11.004;2024-01-16T03:07:38;4.80;;;3.47;;
9729;SDS011;4904;49.152;11.004;2024-01-16T03:10:06;4.27;;;3.40;;
9729;SDS011;4904;49.152;11.004;2024-01-16T03:12:33;4.40;;;3.67;;
9729;SDS011;4904;49.152;11.004;2024-01-16T03:15:01;7.03;;;3.27;;
9729;SDS011;4904;49.152;11.004;2024-01-16T03:17:28;4.83;;;3.73;;
9729;SDS011;4904;49.152;11.004;2024-01-16T03:19:56;6.40;;;4.20;;
9729;SDS011;4904;49.152;11.004;2024-01-16T03:22:22;4.80;;;3.33;;
9729;SDS011;4904;49.152;11.004;2024-01-16T03:24:50;7.67;;;3.87;;
9729;SDS011;4904;49.152;11.004;2024-01-16T03:27:17;9.97;;;2.80;;
9729;SDS011;4904;49.152;11.004;2024-01-16T03:29:44;3.63;;;3.27;;
9729;SDS011;4904;49.152;11.004;2024-01-16T03:32:13;5.37;;;4.00;;
9729;SDS011;4904;49.152;11.004;2024-01-16T03:34:40;6.20;;;4.03;;
9729;SDS011;4904;49.152;11.004;2024-01-16T03:37:07;5.70;;;3.73;;
9729;SDS011;4904;49.152;11.004;2024-01-16T03:39:33;6.50;;;3.10;;
9729;SDS011;4904;49.152;11.004;2024-01-16T03:42:00;5.07;;;3.57;;
9729;SDS011;4904;49.152;11.004;2024-01-16T03:44:27;6.63;;;3.80;;
9729;SDS011;4904;49.152;11.004;2024-01-16T03:46:54;5.77;;;3.23;;
9729;SDS011;4904;49.152;11.004;2024-01-16T03:49:23;6.23;;;3.43;;
9729;SDS011;4904;49.152;11.004;2024-01-16T03:51:50;4.03;;;3.53;;
9729;SDS011;4904;49.152;11.004;2024-01-16T03:54:17;7.90;;;3.50;;
9729;SDS011;4904;49.152;11.004;2024-01-16T03:56:44;7.17;;;4.13;;
9729;SDS011;4904;49.152;11.004;2024-01-16T03:59:11;5.47;;;3.60;;
9729;SDS011;4904;49.152;11.004;2024-01-16T04:01:38;4.70;;;3.73;;
9729;SDS011;4904;49.152;11.004;2024-01-16T04:04:06;6.07;;;3.67;;
9729;SDS011;4904;49.152;11.004;2024-01-16T04:06:34;7.43;;;3.80;;
9729;SDS011;4904;49.152;11.004;2024-01-16T04:09:01;7.93;;;4.20;;
9729;SDS011;4904;49.152;11.004;2024-01-16T04:11:28;7.87;;;5.07;;
9729;SDS011;4904;49.152;11.004;2024-01-16T04:13:55;6.43;;;4.70;;
9729;SDS011;4904;49.152;11.004;2024-01-16T04:16:22;5.83;;;4.70;;
9729;SDS011;4904;49.152;11.004;2024-01-16T04:18:49;7.93;;;5.43;;
9729;SDS011;4904;49.152;11.004;2024-01-16T04:21:16;7.50;;;4.10;;
9729;SDS011;4904;49.152;11.004;2024-01-16T04:23:44;9.63;;;4.73;;
9729;SDS011;4904;49.152;11.004;2024-01-16T04:26:11;6.60;;;4.60;;
9729;SDS011;4904;49.152;11.004;2024-01-16T04:28:38;7.57;;;4.67;;
9729;SDS011;4904;49.152;11.004;2024-01-16T04:31:05;8.03;;;5.00;;
9729;SDS011;4904;49.152;11.004;2024-01-16T04:33:31;7.87;;;5.30;;
9729;SDS011;4904;49.152;11.004;2024-01-16T04:35:58;9.23;;;4.97;;
9729;SDS011;4904;49.152;11.004;2024-01-16T04:38:25;12.60;;;5.43;;
9729;SDS011;4904;49.152;11.004;2024-01-16T04:40:53;6.00;;;4.63;;
9729;SDS011;4904;49.152;11.004;2024-01-16T04:43:20;8.87;;;5.17;;
9729;SDS011;4904;49.152;11.004;2024-01-16T04:45:47;7.23;;;5.30;;
9729;SDS011;4904;49.152;11.004;2024-01-16T04:48:14;6.93;;;5.37;;
9729;SDS011;4904;49.152;11.004;2024-01-16T04:50:41;6.33;;;5.03;;
9729;SDS011;4904;49.152;11.004;2024-01-16T04:53:08;6.47;;;4.00;;
9729;SDS011;4904;49.152;11.004;2024-01-16T04:55:35;6.03;;;4.50;;
9729;SDS011;4904;49.152;11.004;2024-01-16T04:58:03;5.53;;;3.90;;
9729;SDS011;4904;49.152;11.004;2024-01-16T05:00:31;4.60;;;3.90;;
9729;SDS011;4904;49.152;11.004;2024-01-16T05:02:58;8.53;;;3.97;;
9729;SDS011;4904;49.152;11.004;2024-01-16T05:05:25;5.03;;;3.90;;
9729;SDS011;4904;49.152;11.004;2024-01-16T05:07:52;4.73;;;3.63;;
9729;SDS011;4904;49.152;11.004;2024-01-16T05:10:18;5.40;;;3.20;;
9729;SDS011;4904;49.152;11.004;2024-01-16T05:12:45;10.30;;;4.40;;
9729;SDS011;4904;49.152;11.004;2024-01-16T05:15:14;6.80;;;3.37;;
9729;SDS011;4904;49.152;11.004;2024-01-16T05:17:40;3.53;;;2.77;;
9729;SDS011;4904;49.152;11.004;2024-01-16T05:20:08;6.73;;;4.83;;
9729;SDS011;4904;49.152;11.004;2024-01-16T05:22:35;5.97;;;3.80;;
9729;SDS011;4904;49.152;11.004;2024-01-16T05:25:03;3.23;;;2.30;;
9729;SDS011;4904;49.152;11.004;2024-01-16T05:27:32;4.10;;;2.63;;
9729;SDS011;4904;49.152;11.004;2024-01-16T05:29:59;6.57;;;4.37;;
9729;SDS011;4904;49.152;11.004;2024-01-16T05:32:27;7.07;;;4.67;;
9729;SDS011;4904;49.152;11.004;2024-01-16T05:34:54;7.00;;;4.13;;
9729;SDS011;4904;49.152;11.004;2024-01-16T05:37:21;8.60;;;4.37;;
9729;SDS011;4904;49.152;11.004;2024-01-16T05:39:48;9.20;;;4.90;;
9729;SDS011;4904;49.152;11.004;2024-01-16T05:42:15;4.87;;;3.77;;
9729;SDS011;4904;49.152;11.004;2024-01-16T05:44:42;5.63;;;3.80;;
9729;SDS011;4904;49.152;11.004;2024-01-16T05:47:09;4.97;;;4.27;;
9729;SDS011;4904;49.152;11.004;2024-01-16T05:49:37;6.40;;;4.93;;
9729;SDS011;4904;49.152;11.004;2024-01-16T05:52:06;5.63;;;4.10;;
9729;SDS011;4904;49.152;11.004;2024-01-16T05:54:33;7.27;;;5.10;;
9729;SDS011;4904;49.152;11.004;2024-01-16T05:57:00;8.87;;;5.60;;
9729;SDS011;4904;49.152;11.004;2024-01-16T05:59:27;6.93;;;5.07;;
9729;SDS011;4904;49.152;11.004;2024-01-16T06:01:54;8.97;;;5.17;;
9729;SDS011;4904;49.152;11.004;2024-01-16T06:04:21;8.80;;;5.53;;
9729;SDS011;4904;49.152;11.004;2024-01-16T06:06:49;10.10;;;5.30;;
9729;SDS011;4904;49.152;11.004;2024-01-16T06:09:16;8.83;;;5.67;;
9729;SDS011;4904;49.152;11.004;2024-01-16T06:11:43;5.70;;;4.80;;
9729;SDS011;4904;49.152;11.004;2024-01-16T06:14:10;4.47;;;3.03;;
9729;SDS011;4904;49.152;11.004;2024-01-16T06:16:38;7.03;;;4.40;;
9729;SDS011;4904;49.152;11.004;2024-01-16T06:19:05;5.93;;;4.63;;
9729;SDS011;4904;49.152;11.004;2024-01-16T06:21:33;5.27;;;3.70;;
9729;SDS011;4904;49.152;11.004;2024-01-16T06:24:01;7.90;;;5.30;;
9729;SDS011;4904;49.152;11.004;2024-01-16T06:26:28;9.33;;;5.40;;
9729;SDS011;4904;49.152;11.004;2024-01-16T06:28:54;10.37;;;5.43;;
9729;SDS011;4904;49.152;11.004;2024-01-16T06:31:21;9.43;;;5.93;;
9729;SDS011;4904;49.152;11.004;2024-01-16T06:33:49;10.07;;;5.43;;
9729;SDS011;4904;49.152;11.004;2024-01-16T06:36:15;9.10;;;4.87;;
9729;SDS011;4904;49.152;11.004;2024-01-16T06:38:42;8.73;;;5.87;;
9729;SDS011;4904;49.152;11.004;2024-01-16T06:41:10;9.20;;;5.73;;
9729;SDS011;4904;49.152;11.004;2024-01-16T06:43:37;8.23;;;5.60;;
9729;SDS011;4904;49.152;11.004;2024-01-16T06:46:05;10.37;;;5.37;;
9729;SDS011;4904;49.152;11.004;2024-01-16T06:48:31;8.17;;;5.17;;
9729;SDS011;4904;49.152;11.004;2024-01-16T06:51:00;10.80;;;6.00;;
9729;SDS011;4904;49.152;11.004;2024-01-16T06:53:27;9.37;;;6.37;;
9729;SDS011;4904;49.152;11.004;2024-01-16T06:55:54;10.23;;;5.90;;
9729;SDS011;4904;49.152;11.004;2024-01-16T06:58:22;8.17;;;5.70;;
9729;SDS011;4904;49.152;11.004;2024-01-16T07:00:49;7.53;;;5.17;;
9729;SDS011;4904;49.152;11.004;2024-01-16T07:03:16;7.33;;;5.10;;
9729;SDS011;4904;49.152;11.004;2024-01-16T07:05:43;8.07;;;5.13;;
9729;SDS011;4904;49.152;11.004;2024-01-16T07:08:10;8.57;;;6.00;;
9729;SDS011;4904;49.152;11.004;2024-01-16T07:10:37;10.20;;;6.07;;
9729;SDS011;4904;49.152;11.004;2024-01-16T07:13:04;8.20;;;5.33;;
9729;SDS011;4904;49.152;11.004;2024-01-16T07:15:33;8.63;;;5.20;;
9729;SDS011;4904;49.152;11.004;2024-01-16T07:18:01;8.23;;;5.40;;
9729;SDS011;4904;49.152;11.004;2024-01-16T07:20:28;7.40;;;5.53;;
9729;SDS011;4904;49.152;11.004;2024-01-16T07:22:54;9.17;;;5.50;;
9729;SDS011;4904;49.152;11.004;2024-01-16T07:25:21;10.67;;;5.53;;
9729;SDS011;4904;49.152;11.004;2024-01-16T07:27:48;5.43;;;4.77;;
9729;SDS011;4904;49.152;11.004;2024-01-16T07:30:15;7.77;;;5.37;;
9729;SDS011;4904;49.152;11.004;2024-01-16T07:32:43;7.30;;;5.27;;
9729;SDS011;4904;49.152;11.004;2024-01-16T07:35:10;7.90;;;5.00;;
9729;SDS011;4904;49.152;11.004;2024-01-16T07:37:37;6.73;;;5.13;;
9729;SDS011;4904;49.152;11.004;2024-01-16T07:40:04;7.83;;;5.67;;
9729;SDS011;4904;49.152;11.004;2024-01-16T07:42:34;7.63;;;5.43;;
9729;SDS011;4904;49.152;11.004;2024-01-16T07:45:01;8.50;;;5.30;;
9729;SDS011;4904;49.152;11.004;2024-01-16T07:47:29;9.30;;;5.50;;
9729;SDS011;4904;49.152;11.004;2024-01-16T07:49:58;6.80;;;5.40;;
9729;SDS011;4904;49.152;11.004;2024-01-16T07:52:25;7.00;;;4.93;;
9729;SDS011;4904;49.152;11.004;2024-01-16T07:54:53;9.30;;;6.27;;
9729;SDS011;4904;49.152;11.004;2024-01-16T07:57:20;7.83;;;4.77;;
9729;SDS011;4904;49.152;11.004;2024-01-16T07:59:47;9.20;;;5.33;;
9729;SDS011;4904;49.152;11.004;2024-01-16T08:02:14;9.33;;;5.27;;
9729;SDS011;4904;49.152;11.004;2024-01-16T08:04:40;8.10;;;4.73;;
9729;SDS011;4904;49.152;11.004;2024-01-16T08:07:09;7.63;;;5.17;;
9729;SDS011;4904;49.152;11.004;2024-01-16T08:09:35;6.93;;;5.03;;
9729;SDS011;4904;49.152;11.004;2024-01-16T08:12:02;6.77;;;5.10;;
9729;SDS011;4904;49.152;11.004;2024-01-16T08:14:31;6.80;;;4.47;;
9729;SDS011;4904;49.152;11.004;2024-01-16T08:16:58;6.60;;;5.37;;
9729;SDS011;4904;49.152;11.004;2024-01-16T08:19:24;7.80;;;5.40;;
9729;SDS011;4904;49.152;11.004;2024-01-16T08:21:51;5.87;;;4.87;;
9729;SDS011;4904;49.152;11.004;2024-01-16T08:24:20;8.50;;;5.60;;
9729;SDS011;4904;49.152;11.004;2024-01-16T08:26:47;8.37;;;5.73;;
9729;SDS011;4904;49.152;11.004;2024-01-16T08:29:14;9.07;;;4.73;;
9729;SDS011;4904;49.152;11.004;2024-01-16T08:31:41;6.73;;;5.30;;
9729;SDS011;4904;49.152;11.004;2024-01-16T08:34:08;7.63;;;5.10;;
9729;SDS011;4904;49.152;11.004;2024-01-16T08:36:35;6.47;;;4.83;;
9729;SDS011;4904;49.152;11.004;2024-01-16T08:39:02;8.70;;;5.07;;
9729;SDS011;4904;49.152;11.004;2024-01-16T08:41:32;7.77;;;5.07;;
9729;SDS011;4904;49.152;11.004;2024-01-16T08:43:59;6.57;;;4.40;;
9729;SDS011;4904;49.152;11.004;2024-01-16T08:46:25;8.00;;;5.17;;
9729;SDS011;4904;49.152;11.004;2024-01-16T08:48:53;5.60;;;4.30;;
9729;SDS011;4904;49.152;11.004;2024-01-16T08:51:20;8.73;;;5.07;;
9729;SDS011;4904;49.152;11.004;2024-01-16T08:53:47;8.77;;;5.23;;
9729;SDS011;4904;49.152;11.004;2024-01-16T08:56:14;7.80;;;5.20;;
9729;SDS011;4904;49.152;11.004;2024-01-16T08:58:44;9.23;;;4.90;;
9729;SDS011;4904;49.152;11.004;2024-01-16T09:01:11;8.13;;;4.80;;
9729;SDS011;4904;49.152;11.004;2024-01-16T09:03:38;9.43;;;4.80;;
9729;SDS011;4904;49.152;11.004;2024-01-16T09:06:05;7.47;;;4.47;;
9729;SDS011;4904;49.152;11.004;2024-01-16T09:08:32;5.90;;;4.60;;
9729;SDS011;4904;49.152;11.004;2024-01-16T09:10:58;8.50;;;4.70;;
9729;SDS011;4904;49.152;11.004;2024-01-16T09:13:25;5.40;;;4.53;;
9729;SDS011;4904;49.152;11.004;2024-01-16T09:15:54;6.63;;;4.63;;
9729;SDS011;4904;49.152;11.004;2024-01-16T09:18:20;6.43;;;4.60;;
9729;SDS011;4904;49.152;11.004;2024-01-16T09:20:47;9.63;;;4.50;;
9729;SDS011;4904;49.152;11.004;2024-01-16T09:23:14;8.57;;;4.70;;
9729;SDS011;4904;49.152;11.004;2024-01-16T09:25:41;6.43;;;3.97;;
9729;SDS011;4904;49.152;11.004;2024-01-16T09:28:08;6.47;;;4.13;;
9729;SDS011;4904;49.152;11.004;2024-01-16T09:30:35;8.40;;;4.37;;
9729;SDS011;4904;49.152;11.004;2024-01-16T09:33:03;7.47;;;4.10;;
9729;SDS011;4904;49.152;11.004;2024-01-16T09:35:32;4.53;;;3.97;;
9729;SDS011;4904;49.152;11.004;2024-01-16T09:37:59;9.33;;;4.40;;
9729;SDS011;4904;49.152;11.004;2024-01-16T09:40:26;6.03;;;4.07;;
9729;SDS011;4904;49.152;11.004;2024-01-16T09:42:53;7.27;;;4.33;;
9729;SDS011;4904;49.152;11.004;2024-01-16T09:45:20;4.63;;;3.80;;
9729;SDS011;4904;49.152;11.004;2024-01-16T09:47:48;6.80;;;4.20;;
9729;SDS011;4904;49.152;11.004;2024-01-16T09:50:18;7.17;;;4.00;;
9729;SDS011;4904;49.152;11.004;2024-01-16T09:52:45;8.00;;;4.03;;
9729;SDS011;4904;49.152;11.004;2024-01-16T09:55:12;6.97;;;4.10;;
9729;SDS011;4904;49.152;11.004;2024-01-16T09:57:40;6.10;;;3.97;;
9729;SDS011;4904;49.152;11.004;2024-01-16T10:00:08;5.53;;;4.10;;
9729;SDS011;4904;49.152;11.004;2024-01-16T10:02:38;6.07;;;3.60;;
9729;SDS011;4904;49.152;11.004;2024-01-16T10:05:06;6.97;;;3.73;;
9729;SDS011;4904;49.152;11.004;2024-01-16T10:07:36;5.50;;;3.67;;
9729;SDS011;4904;49.152;11.004;2024-01-16T10:10:04;6.83;;;3.80;;
9729;SDS011;4904;49.152;11.004;2024-01-16T10:12:33;6.97;;;4.20;;
9729;SDS011;4904;49.152;11.004;2024-01-16T10:15:00;6.13;;;3.80;;
9729;SDS011;4904;49.152;11.004;2024-01-16T10:17:36;5.80;;;3.60;;
9729;SDS011;4904;49.152;11.004;2024-01-16T10:20:05;5.00;;;3.63;;
9729;SDS011;4904;49.152;11.004;2024-01-16T10:22:39;5.10;;;3.57;;
9729;SDS011;4904;49.152;11.004;2024-01-16T10:25:07;5.50;;;3.67;;
9729;SDS011;4904;49.152;11.004;2024-01-16T10:27:35;6.00;;;4.10;;
9729;SDS011;4904;49.152;11.004;2024-01-16T10:30:03;5.27;;;4.00;;
9729;SDS011;4904;49.152;11.004;2024-01-16T10:32:33;6.10;;;3.50;;
9729;SDS011;4904;49.152;11.004;2024-01-16T10:35:01;8.30;;;3.93;;
9729;SDS011;4904;49.152;11.004;2024-01-16T10:37:29;6.67;;;3.70;;
9729;SDS011;4904;49.152;11.004;2024-01-16T10:39:58;7.73;;;3.80;;
9729;SDS011;4904;49.152;11.004;2024-01-16T10:42:25;3.70;;;3.20;;
9729;SDS011;4904;49.152;11.004;2024-01-16T10:44:52;6.73;;;3.80;;
9729;SDS011;4904;49.152;11.004;2024-01-16T10:47:21;8.97;;;4.10;;
9729;SDS011;4904;49.152;11.004;2024-01-16T10:49:49;6.00;;;3.93;;
9729;SDS011;4904;49.152;11.004;2024-01-16T10:52:17;6.37;;;3.30;;
9729;SDS011;4904;49.152;11.004;2024-01-16T10:54:44;5.03;;;3.20;;
9729;SDS011;4904;49.152;11.004;2024-01-16T10:57:17;7.73;;;3.30;;
9729;SDS011;4904;49.152;11.004;2024-01-16T10:59:46;4.77;;;2.93;;
9729;SDS011;4904;49.152;11.004;2024-01-16T11:02:23;5.70;;;3.33;;
9729;SDS011;4904;49.152;11.004;2024-01-16T11:04:55;6.27;;;3.70;;
9729;SDS011;4904;49.152;11.004;2024-01-16T11:07:23;4.57;;;3.37;;
9729;SDS011;4904;49.152;11.004;2024-01-16T11:09:51;5.77;;;3.30;;
9729;SDS011;4904;49.152;11.004;2024-01-16T11:12:21;5.80;;;3.93;;
9729;SDS011;4904;49.152;11.004;2024-01-16T11:14:51;4.70;;;3.17;;
9729;SDS011;4904;49.152;11.004;2024-01-16T11:17:18;6.30;;;4.23;;
9729;SDS011;4904;49.152;11.004;2024-01-16T11:19:46;5.43;;;3.27;;
9729;SDS011;4904;49.152;11.004;2024-01-16T11:22:14;9.97;;;3.70;;
9729;SDS011;4904;49.152;11.004;2024-01-16T11:24:42;6.50;;;3.90;;
9729;SDS011;4904;49.152;11.004;2024-01-16T11:27:21;5.63;;;3.70;;
9729;SDS011;4904;49.152;11.004;2024-01-16T11:29:49;11.90;;;8.13;;
9729;SDS011;4904;49.152;11.004;2024-01-16T11:35:02;5.57;;;3.70;;
9729;SDS011;4904;49.152;11.004;2024-01-16T11:37:29;7.50;;;4.00;;
9729;SDS011;4904;49.152;11.004;2024-01-16T11:46:08;4.30;;;3.10;;
9729;SDS011;4904;49.152;11.004;2024-01-16T11:48:35;5.63;;;3.50;;
9729;SDS011;4904;49.152;11.004;2024-01-16T11:51:22;6.73;;;3.60;;
9729;SDS011;4904;49.152;11.004;2024-01-16T11:53:50;4.80;;;3.07;;
9729;SDS011;4904;49.152;11.004;2024-01-16T11:59:54;8.17;;;3.53;;
9729;SDS011;4904;49.152;11.004;2024-01-16T12:02:28;6.90;;;3.50;;
9729;SDS011;4904;49.152;11.004;2024-01-16T12:05:04;5.13;;;3.70;;
9729;SDS011;4904;49.152;11.004;2024-01-16T12:07:42;5.13;;;3.13;;
9729;SDS011;4904;49.152;11.004;2024-01-16T12:10:12;5.90;;;4.20;;
9729;SDS011;4904;49.152;11.004;2024-01-16T12:12:39;4.37;;;2.97;;
9729;SDS011;4904;49.152;11.004;2024-01-16T12:15:06;4.30;;;3.00;;
9729;SDS011;4904;49.152;11.004;2024-01-16T12:17:40;5.40;;;3.50;;
9729;SDS011;4904;49.152;11.004;2024-01-16T12:20:19;4.93;;;3.10;;
9729;SDS011;4904;49.152;11.004;2024-01-16T12:22:51;6.70;;;3.30;;
9729;SDS011;4904;49.152;11.004;2024-01-16T12:25:19;5.77;;;3.40;;
9729;SDS011;4904;49.152;11.004;2024-01-16T12:27:53;6.93;;;3.30;;
9729;SDS011;4904;49.152;11.004;2024-01-16T12:30:21;4.23;;;3.40;;
9729;SDS011;4904;49.152;11.004;2024-01-16T12:32:51;6.40;;;3.30;;
9729;SDS011;4904;49.152;11.004;2024-01-16T12:35:21;5.73;;;3.73;;
9729;SDS011;4904;49.152;11.004;2024-01-16T12:37:58;5.37;;;3.70;;
9729;SDS011;4904;49.152;11.004;2024-01-16T12:40:26;5.80;;;3.33;;
9729;SDS011;4904;49.152;11.004;2024-01-16T12:42:53;5.60;;;3.43;;
9729;SDS011;4904;49.152;11.004;2024-01-16T12:45:20;7.53;;;3.60;;
9729;SDS011;4904;49.152;11.004;2024-01-16T12:47:52;8.87;;;4.63;;
9729;SDS011;4904;49.152;11.004;2024-01-16T12:50:20;8.53;;;4.70;;
9729;SDS011;4904;49.152;11.004;2024-01-16T12:52:47;6.13;;;4.37;;
9729;SDS011;4904;49.152;11.004;2024-01-16T12:55:15;5.97;;;3.60;;
9729;SDS011;4904;49.152;11.004;2024-01-16T12:57:43;6.67;;;3.70;;
9729;SDS011;4904;49.152;11.004;2024-01-16T13:00:22;6.03;;;3.45;;
9729;SDS011;4904;49.152;11.004;2024-01-16T13:02:50;4.80;;;2.80;;
9729;SDS011;4904;49.152;11.004;2024-01-16T13:05:22;6.23;;;2.73;;
9729;SDS011;4904;49.152;11.004;2024-01-16T13:07:59;3.83;;;2.70;;
9729;SDS011;4904;49.152;11.004;2024-01-16T13:10:28;4.93;;;2.70;;
9729;SDS011;4904;49.152;11.004;2024-01-16T13:13:10;5.40;;;3.40;;
9729;SDS011;4904;49.152;11.004;2024-01-16T13:15:38;5.53;;;3.37;;
9729;SDS011;4904;49.152;11.004;2024-01-16T13:18:16;4.67;;;2.83;;
9729;SDS011;4904;49.152;11.004;2024-01-16T13:20:44;3.90;;;2.90;;
9729;SDS011;4904;49.152;11.004;2024-01-16T13:23:12;6.87;;;3.00;;
9729;SDS011;4904;49.152;11.004;2024-01-16T13:25:42;3.63;;;2.67;;
9729;SDS011;4904;49.152;11.004;2024-01-16T13:28:10;3.50;;;2.80;;
9729;SDS011;4904;49.152;11.004;2024-01-16T13:30:37;5.33;;;2.97;;
9729;SDS011;4904;49.152;11.004;2024-01-16T13:33:04;4.53;;;3.07;;
9729;SDS011;4904;49.152;11.004;2024-01-16T13:35:33;6.37;;;3.43;;
9729;SDS011;4904;49.152;11.004;2024-01-16T13:38:02;4.43;;;3.13;;
9729;SDS011;4904;49.152;11.004;2024-01-16T13:40:30;7.63;;;3.00;;
9729;SDS011;4904;49.152;11.004;2024-01-16T13:42:57;6.43;;;4.37;;
9729;SDS011;4904;49.152;11.004;2024-01-16T13:45:24;5.13;;;3.50;;
9729;SDS011;4904;49.152;11.004;2024-01-16T13:47:51;6.57;;;3.90;;
9729;SDS011;4904;49.152;11.004;2024-01-16T13:50:18;6.47;;;3.20;;
9729;SDS011;4904;49.152;11.004;2024-01-16T13:52:46;5.83;;;3.00;;
9729;SDS011;4904;49.152;11.004;2024-01-16T13:55:13;5.70;;;3.20;;
9729;SDS011;4904;49.152;11.004;2024-01-16T13:57:40;5.63;;;3.40;;
9729;SDS011;4904;49.152;11.004;2024-01-16T14:00:08;5.47;;;3.10;;
9729;SDS011;4904;49.152;11.004;2024-01-16T14:02:38;4.57;;;3.03;;
9729;SDS011;4904;49.152;11.004;2024-01-16T14:05:06;4.80;;;3.30;;
9729;SDS011;4904;49.152;11.004;2024-01-16T14:07:36;4.57;;;3.00;;
9729;SDS011;4904;49.152;11.004;2024-01-16T14:10:05;7.97;;;3.30;;
9729;SDS011;4904;49.152;11.004;2024-01-16T14:12:32;4.83;;;2.90;;
9729;SDS011;4904;49.152;11.004;2024-01-16T14:15:00;6.00;;;2.97;;
9729;SDS011;4904;49.152;11.004;2024-01-16T14:17:31;5.30;;;3.20;;
9729;SDS011;4904;49.152;11.004;2024-01-16T14:19:59;5.30;;;3.13;;
9729;SDS011;4904;49.152;11.004;2024-01-16T14:22:25;4.57;;;2.97;;
9729;SDS011;4904;49.152;11.004;2024-01-16T14:24:53;5.03;;;3.50;;
9729;SDS011;4904;49.152;11.004;2024-01-16T14:27:21;4.43;;;3.43;;
9729;SDS011;4904;49.152;11.004;2024-01-16T14:29:49;6.87;;;3.43;;
9729;SDS011;4904;49.152;11.004;2024-01-16T14:32:15;4.97;;;3.70;;
9729;SDS011;4904;49.152;11.004;2024-01-16T14:34:42;5.03;;;3.40;;
9729;SDS011;4904;49.152;11.004;2024-01-16T14:37:09;7.47;;;3.80;;
9729;SDS011;4904;49.152;11.004;2024-01-16T14:39:36;6.80;;;4.00;;
9729;SDS011;4904;49.152;11.004;2024-01-16T14:42:04;8.27;;;4.13;;
9729;SDS011;4904;49.152;11.004;2024-01-16T14:44:33;5.77;;;4.00;;
9729;SDS011;4904;49.152;11.004;2024-01-16T14:47:00;5.00;;;3.77;;
9729;SDS011;4904;49.152;11.004;2024-01-16T14:49:29;4.80;;;3.53;;
9729;SDS011;4904;49.152;11.004;2024-01-16T14:51:57;4.43;;;3.67;;
9729;SDS011;4904;49.152;11.004;2024-01-16T14:54:24;4.70;;;3.50;;
9729;SDS011;4904;49.152;11.004;2024-01-16T14:56:51;6.70;;;3.50;;
9729;SDS011;4904;49.152;11.004;2024-01-16T14:59:18;5.53;;;3.70;;
9729;SDS011;4904;49.152;11.004;2024-01-16T15:01:46;7.10;;;3.60;;
9729;SDS011;4904;49.152;11.004;2024-01-16T15:04:13;6.23;;;3.60;;
9729;SDS011;4904;49.152;11.004;2024-01-16T15:06:40;5.90;;;3.90;;
9729;SDS011;4904;49.152;11.004;2024-01-16T15:09:07;6.33;;;3.83;;
9729;SDS011;4904;49.152;11.004;2024-01-16T15:11:38;5.70;;;3.50;;
9729;SDS011;4904;49.152;11.004;2024-01-16T15:14:04;6.17;;;3.63;;
9729;SDS011;4904;49.152;11.004;2024-01-16T15:16:31;6.70;;;3.63;;